VYXG weather

Kyaukhtu South Airport
Kyaukhtu South, Magway Division, Burma

Public forecast

Using degrees Celsius for public forecast. Weather courtesy of forecast.io.

METAR (pilot weather report)

Closest report is Mandalay International Airport, 104.7 nm (193.9 km) E. Retrieved 2019/09/15 07:30 UTC (0 seconds ago):

VYMD 150730Z 18002KT 7000 BKN020 FEW025CB 37/26 Q1005 NOSIG

TAF (pilot weather forecast)

Closest forecast is Mandalay International Airport, 104.7 nm (193.9 km) E. Retrieved 2019/09/15 06:00 UTC (1 hour ago):

TAF VYMD 150500Z 1506/1606 14003KT 7000 BKN020 FEW025CB TEMPO 1506/1512 24005KT 5000 -TSRA BKN015 FEW018CB OVC090